createdAt,value
2019-01-03T00:00:20.946Z,99989.12
2019-01-03T00:03:17.761Z,99993.42
2019-01-03T00:06:26.894Z,99997.71
2019-01-03T00:09:19.016Z,99998.95
2019-01-03T00:12:11.409Z,100004.09
2019-01-03T00:15:04.929Z,100005.88
2019-01-03T00:17:54.696Z,100008.47
2019-01-03T00:20:49.094Z,99998.64
2019-01-03T00:23:40.164Z,99996.51
2019-01-03T00:26:34.869Z,100001.21
2019-01-03T00:29:42.806Z,100002.94
2019-01-03T00:32:47.370Z,100001.67
2019-01-03T00:35:40.984Z,100008.51
2019-01-03T00:38:24.504Z,100003.83
2019-01-03T00:41:13.951Z,100006.41
2019-01-03T00:43:55.052Z,99997.02
2019-01-03T00:46:47.420Z,99996.14
2019-01-03T00:49:44.542Z,99994.87
2019-01-03T00:52:37.982Z,99988.45
2019-01-03T00:55:39.182Z,100000.45
2019-01-03T00:58:32.021Z,100008.59
2019-01-03T01:01:21.068Z,100011.61
2019-01-03T01:04:14.621Z,100018.03
2019-01-03T01:07:04.322Z,100010.72
2019-01-03T01:10:08.958Z,100020.59
2019-01-03T01:13:05.288Z,100020.14
2019-01-03T01:15:57.993Z,100026.56
2019-01-03T01:18:48.771Z,100033.42
2019-01-03T01:21:56.962Z,100038.55
2019-01-03T01:24:51.281Z,100041.12
2019-01-03T01:27:50.092Z,100045.80
2019-01-03T01:30:39.497Z,100048.38
2019-01-03T01:33:42.512Z,100054.78
2019-01-03T01:36:45.402Z,100053.49
2019-01-03T01:39:41.318Z,100055.22
2019-01-03T01:42:36.599Z,100052.64
2019-01-03T01:45:32.043Z,100056.94
2019-01-03T01:48:34.897Z,100062.92
2019-01-03T01:51:23.224Z,100063.77
2019-01-03T01:54:28.845Z,100064.60
2019-01-03T01:57:25.609Z,100068.44
2019-01-03T02:00:27.904Z,100073.54
2019-01-03T02:03:16.786Z,100070.97
2019-01-03T02:06:03.362Z,100074.33
2019-01-03T02:09:03.583Z,100075.17
2019-01-03T02:12:00.121Z,100080.67
2019-01-03T02:14:50.064Z,100081.06
2019-01-03T02:17:46.691Z,100080.20
2019-01-03T02:20:39.786Z,100082.34
2019-01-03T02:23:33.478Z,100079.38
2019-01-03T02:26:23.118Z,100085.81
2019-01-03T02:29:13.977Z,100078.56
2019-01-03T02:32:03.949Z,100081.58
2019-01-03T02:34:56.695Z,100084.14
2019-01-03T02:37:45.239Z,100082.42
2019-01-03T02:40:41.073Z,100087.55
2019-01-03T02:43:36.056Z,100085.81
2019-01-03T02:46:32.641Z,100084.97
2019-01-03T02:49:26.207Z,100087.92
2019-01-03T02:52:15.986Z,100086.22
2019-01-03T02:55:01.533Z,100090.09
2019-01-03T02:57:52.372Z,100087.94
2019-01-03T03:00:43.074Z,100083.64
2019-01-03T03:03:22.745Z,100082.80
2019-01-03T03:06:31.976Z,100084.03
2019-01-03T03:09:31.296Z,100080.16
2019-01-03T03:12:28.217Z,100073.73
2019-01-03T03:15:27.967Z,100072.44
2019-01-03T03:18:21.836Z,100072.40
2019-01-03T03:21:28.113Z,100071.09
2019-01-03T03:24:18.056Z,100063.84
2019-01-03T03:27:21.249Z,100072.36
2019-01-03T03:30:10.895Z,100074.84
2019-01-03T03:33:01.634Z,100068.89
2019-01-03T03:35:51.207Z,100058.16
2019-01-03T03:38:40.894Z,100067.13
2019-01-03T03:41:20.461Z,100067.56
2019-01-03T03:44:10.337Z,100070.19
2019-01-03T03:47:03.621Z,100063.32
2019-01-03T03:49:54.390Z,100063.32
2019-01-03T03:52:54.488Z,100059.94
2019-01-03T03:55:42.899Z,100048.84
2019-01-03T03:58:39.545Z,100047.16
2019-01-03T04:01:29.289Z,100043.70
2019-01-03T04:04:20.028Z,100046.27
2019-01-03T04:07:13.979Z,100047.94
2019-01-03T04:10:04.706Z,100046.26
2019-01-03T04:12:59.473Z,100046.63
2019-01-03T04:15:52.346Z,100043.21
2019-01-03T04:18:39.576Z,100042.70
2019-01-03T04:21:28.946Z,100037.98
2019-01-03T04:24:19.643Z,100033.68
2019-01-03T04:27:09.269Z,100033.33
2019-01-03T04:29:56.645Z,100038.34
2019-01-03T04:32:45.989Z,100036.16
2019-01-03T04:35:39.479Z,100037.83
2019-01-03T04:38:28.824Z,100034.44
2019-01-03T04:41:19.576Z,100037.83
2019-01-03T04:44:10.330Z,100031.76
2019-01-03T04:47:09.880Z,100029.55
2019-01-03T04:49:59.375Z,100020.98
2019-01-03T04:52:49.265Z,100021.08
2019-01-03T04:55:38.653Z,100023.25
2019-01-03T04:58:28.027Z,100022.39
2019-01-03T05:02:04.312Z,100025.33
2019-01-03T05:05:04.320Z,100034.30
2019-01-03T05:08:10.281Z,100036.41
2019-01-03T05:11:16.377Z,100027.40
2019-01-03T05:14:05.922Z,100038.47
2019-01-03T05:16:58.518Z,100034.19
2019-01-03T05:20:01.401Z,100037.98
2019-01-03T05:22:54.974Z,100033.77
2019-01-03T05:25:48.593Z,100032.88
2019-01-03T05:28:54.630Z,100029.88
2019-01-03T05:31:45.871Z,100027.72
2019-01-03T05:34:35.474Z,100024.27
2019-01-03T05:37:41.595Z,100028.52
2019-01-03T05:40:31.586Z,100033.59
2019-01-03T05:43:22.891Z,100043.42
2019-01-03T05:46:16.708Z,100051.98
2019-01-03T05:49:06.217Z,100044.73
2019-01-03T05:51:59.703Z,100050.56
2019-01-03T05:55:02.778Z,100057.34
2019-01-03T05:57:51.973Z,100056.97
2019-01-03T06:00:41.661Z,100053.51
2019-01-03T06:03:38.351Z,100050.50
2019-01-03T06:06:30.175Z,100048.45
2019-01-03T06:09:16.722Z,100056.69
2019-01-03T06:12:13.732Z,100056.75
2019-01-03T06:15:07.287Z,100053.39
2019-01-03T06:17:56.728Z,100054.23
2019-01-03T06:20:52.378Z,100063.67
2019-01-03T06:23:55.245Z,100065.85
2019-01-03T06:26:44.688Z,100071.44
2019-01-03T06:29:53.890Z,100077.42
2019-01-03T06:32:43.204Z,100079.08
2019-01-03T06:35:39.806Z,100084.03
2019-01-03T06:38:39.457Z,100085.25
2019-01-03T06:41:33.045Z,100090.30
2019-01-03T06:44:26.390Z,100080.42
2019-01-03T06:47:17.131Z,100091.80
2019-01-03T06:50:26.479Z,100080.31
2019-01-03T06:53:17.245Z,100087.17
2019-01-03T06:56:20.249Z,100098.24
2019-01-03T06:59:12.990Z,100088.81
2019-01-03T07:02:15.863Z,100091.00
2019-01-03T07:05:10.012Z,100092.68
2019-01-03T07:08:05.740Z,100086.78
2019-01-03T07:11:02.491Z,100091.41
2019-01-03T07:14:00.804Z,100098.30
2019-01-03T07:16:50.229Z,100088.09
2019-01-03T07:20:02.577Z,100090.67
2019-01-03T07:23:06.348Z,100086.90
2019-01-03T07:26:02.137Z,100092.09
2019-01-03T07:29:12.983Z,100096.28
2019-01-03T07:32:10.287Z,100106.00
2019-01-03T07:35:11.688Z,100100.00
2019-01-03T07:38:01.472Z,100102.91
2019-01-03T07:40:56.932Z,100105.97
2019-01-03T07:43:45.658Z,100107.38
2019-01-03T07:46:34.335Z,100114.61
2019-01-03T07:49:26.832Z,100118.08
2019-01-03T07:52:18.684Z,100116.36
2019-01-03T07:55:12.213Z,100119.75
2019-01-03T07:58:21.140Z,100127.11
2019-01-03T08:01:17.321Z,100132.66
2019-01-03T08:04:17.593Z,100140.34
2019-01-03T08:07:14.814Z,100150.23
2019-01-03T08:10:09.177Z,100136.16
2019-01-03T08:13:15.029Z,100138.78
2019-01-03T08:16:04.284Z,100136.69
2019-01-03T08:18:55.354Z,100132.89
2019-01-03T08:22:05.434Z,100136.37
2019-01-03T08:24:52.104Z,100143.30
2019-01-03T08:27:41.524Z,100142.11
2019-01-03T08:30:22.768Z,100143.91
2019-01-03T08:33:22.092Z,100148.27
2019-01-03T08:36:11.527Z,100143.20
2019-01-03T08:39:05.327Z,100150.52
2019-01-03T08:41:59.930Z,100138.61
2019-01-03T08:44:49.560Z,100145.94
2019-01-03T08:47:43.088Z,100148.08
2019-01-03T08:50:32.700Z,100154.06
2019-01-03T08:53:23.951Z,100152.81
2019-01-03T08:56:16.626Z,100154.57
2019-01-03T08:59:08.011Z,100148.58
2019-01-03T09:02:10.693Z,100143.91
2019-01-03T09:05:00.282Z,100143.51
2019-01-03T09:07:56.718Z,100143.95
2019-01-03T09:10:52.513Z,100144.85
2019-01-03T09:13:45.304Z,100138.48
2019-01-03T09:16:34.412Z,100139.36
2019-01-03T09:19:27.688Z,100141.56
2019-01-03T09:22:19.716Z,100145.44
2019-01-03T09:25:08.501Z,100142.89
2019-01-03T09:28:12.279Z,100134.34
2019-01-03T09:31:21.152Z,100138.21
2019-01-03T09:34:18.900Z,100139.52
2019-01-03T09:37:05.819Z,100145.52
2019-01-03T09:39:49.429Z,100151.56
2019-01-03T09:42:41.283Z,100147.28
2019-01-03T09:45:13.190Z,100142.60
2019-01-03T09:47:45.052Z,100147.72
2019-01-03T09:50:16.960Z,100146.04
2019-01-03T09:52:48.973Z,100144.77
2019-01-03T09:55:20.988Z,100135.33
2019-01-03T09:57:57.334Z,100139.63
2019-01-03T10:00:31.400Z,100134.90
2019-01-03T10:03:07.491Z,100130.20
2019-01-03T10:05:39.407Z,100125.05
2019-01-03T10:08:11.367Z,100127.19
2019-01-03T10:10:46.615Z,100110.91
2019-01-03T10:13:20.813Z,100118.61
2019-01-03T10:15:55.676Z,100122.02
2019-01-03T10:18:31.814Z,100121.18
2019-01-03T10:21:14.327Z,100125.44
2019-01-03T10:23:46.297Z,100119.88
2019-01-03T10:26:18.227Z,100110.88
2019-01-03T10:28:50.609Z,100114.70
2019-01-03T10:31:26.808Z,100115.97
2019-01-03T10:33:58.698Z,100106.13
2019-01-03T10:36:33.751Z,100107.84
2019-01-03T10:39:09.955Z,100109.11
2019-01-03T10:41:41.875Z,100106.11
2019-01-03T10:44:13.747Z,100109.94
2019-01-03T10:46:45.672Z,100106.91
2019-01-03T10:49:17.594Z,100109.09
2019-01-03T10:51:49.514Z,100103.94
2019-01-03T10:54:21.398Z,100103.91
2019-01-03T10:56:53.444Z,100105.56
2019-01-03T10:59:25.448Z,100099.95
2019-01-03T11:01:57.301Z,100100.37
2019-01-03T11:04:30.293Z,100097.36
2019-01-03T11:07:02.240Z,100089.25
2019-01-03T11:09:34.250Z,100082.38
2019-01-03T11:12:06.208Z,100070.77
2019-01-03T11:14:38.256Z,100064.26
2019-01-03T11:17:10.201Z,100052.97
2019-01-03T11:19:42.063Z,100052.84
2019-01-03T11:22:13.966Z,100046.83
2019-01-03T11:24:45.871Z,100054.09
2019-01-03T11:27:17.767Z,100052.41
2019-01-03T11:29:49.738Z,100054.09
2019-01-03T11:32:21.649Z,100048.45
2019-01-03T11:34:53.638Z,100042.42
2019-01-03T11:37:25.698Z,100035.16
2019-01-03T11:40:00.350Z,100026.95
2019-01-03T11:42:32.258Z,100031.62
2019-01-03T11:45:04.328Z,100024.32
2019-01-03T11:47:36.334Z,100016.19
2019-01-03T11:50:09.929Z,100016.56
2019-01-03T11:52:44.721Z,100011.34
2019-01-03T11:55:18.397Z,100014.30
2019-01-03T11:57:50.374Z,100010.00
2019-01-03T12:00:22.244Z,100004.86
2019-01-03T12:02:54.159Z,99996.66
2019-01-03T12:05:26.133Z,99989.73
2019-01-03T12:07:58.004Z,99989.59
2019-01-03T12:10:30.013Z,99993.84
2019-01-03T12:13:01.870Z,100000.72
2019-01-03T12:15:34.836Z,100007.20
2019-01-03T12:18:08.420Z,100002.11
2019-01-03T12:20:40.441Z,99997.81
2019-01-03T12:23:12.353Z,99994.37
2019-01-03T12:25:44.249Z,99988.31
2019-01-03T12:28:16.190Z,99993.08
2019-01-03T12:30:48.242Z,99986.59
2019-01-03T12:33:20.626Z,99987.88
2019-01-03T12:35:55.915Z,99989.20
2019-01-03T12:38:27.791Z,99984.08
2019-01-03T12:40:59.702Z,99982.30
2019-01-03T12:43:31.693Z,99988.28
2019-01-03T12:46:03.583Z,99984.39
2019-01-03T12:48:35.455Z,99980.05
2019-01-03T12:51:07.348Z,99987.33
2019-01-03T12:53:43.909Z,99975.26
2019-01-03T12:56:20.709Z,99970.99
2019-01-03T12:58:58.044Z,99965.90
2019-01-03T13:01:30.063Z,99964.97
2019-01-03T13:04:03.235Z,99960.73
2019-01-03T13:06:35.483Z,99961.16
2019-01-03T13:09:19.008Z,99964.66
2019-01-03T13:11:50.953Z,99969.82
2019-01-03T13:14:22.985Z,99965.50
2019-01-03T13:17:02.688Z,99970.63
2019-01-03T13:19:35.866Z,99968.06
2019-01-03T13:22:16.922Z,99971.95
2019-01-03T13:24:51.873Z,99965.90
2019-01-03T13:27:25.952Z,99977.91
2019-01-03T13:29:57.979Z,99974.92
2019-01-03T13:32:32.419Z,99971.09
2019-01-03T13:35:10.008Z,99968.91
2019-01-03T13:37:43.178Z,99979.17
2019-01-03T13:40:17.653Z,99975.31
2019-01-03T13:42:49.522Z,99976.55
2019-01-03T13:45:23.978Z,99971.03
2019-01-03T13:47:59.875Z,99970.99
2019-01-03T13:50:36.166Z,99969.70
2019-01-03T13:53:08.149Z,99961.98
2019-01-03T13:55:40.703Z,99965.41
2019-01-03T13:58:15.037Z,99965.42
2019-01-03T14:00:51.811Z,99970.63
2019-01-03T14:03:23.676Z,99971.19
2019-01-03T14:05:58.588Z,99978.13
2019-01-03T14:08:32.611Z,99980.28
2019-01-03T14:11:04.567Z,99975.58
2019-01-03T14:13:39.375Z,99981.59
2019-01-03T14:16:14.092Z,99977.31
2019-01-03T14:18:46.356Z,99968.75
2019-01-03T14:21:24.016Z,99970.50
2019-01-03T14:23:56.292Z,99975.67
2019-01-03T14:26:29.562Z,99979.53
2019-01-03T14:29:01.472Z,99973.52
2019-01-03T14:31:34.980Z,99977.91
2019-01-03T14:34:09.745Z,99976.64
2019-01-03T14:36:50.977Z,99980.06
2019-01-03T14:39:27.868Z,99986.12
2019-01-03T14:41:59.728Z,99984.41
2019-01-03T14:44:38.589Z,99980.99
2019-01-03T14:47:08.980Z,99978.41
2019-01-03T14:49:41.245Z,99979.34
2019-01-03T14:52:14.535Z,99982.83
2019-01-03T14:54:46.440Z,99978.16
2019-01-03T14:57:21.769Z,99980.79
2019-01-03T14:59:59.274Z,99992.84
2019-01-03T15:02:40.176Z,99984.28
2019-01-03T15:05:16.379Z,99987.75
2019-01-03T15:07:49.299Z,99989.03
2019-01-03T15:10:21.205Z,99984.36
2019-01-03T15:12:55.523Z,99992.47
2019-01-03T15:15:30.208Z,99993.76
2019-01-03T15:18:02.097Z,99993.77
2019-01-03T15:20:36.412Z,99993.33
2019-01-03T15:23:08.294Z,99994.61
2019-01-03T15:25:40.556Z,99995.88
2019-01-03T15:28:12.584Z,99996.69
2019-01-03T15:30:50.084Z,99999.25
2019-01-03T15:33:24.743Z,99987.65
2019-01-03T15:35:56.638Z,99988.90
2019-01-03T15:38:28.565Z,99994.89
2019-01-03T15:41:06.082Z,99994.03
2019-01-03T15:43:39.092Z,99998.70
2019-01-03T15:46:10.995Z,99991.41
2019-01-03T15:48:45.398Z,99985.83
2019-01-03T15:51:17.407Z,99991.86
2019-01-03T15:53:52.019Z,99989.69
2019-01-03T15:56:25.299Z,99992.25
2019-01-03T15:59:00.018Z,99988.80
2019-01-03T16:01:31.886Z,99996.11
2019-01-03T16:04:05.437Z,99991.45
2019-01-03T16:06:40.109Z,99997.09
2019-01-03T16:09:13.890Z,99989.83
2019-01-03T16:11:47.330Z,99991.15
2019-01-03T16:14:19.238Z,99988.54
2019-01-03T16:16:54.519Z,99987.25
2019-01-03T16:19:30.583Z,99985.55
2019-01-03T16:22:04.602Z,99992.38
2019-01-03T16:24:36.549Z,99991.07
2019-01-03T16:27:08.473Z,99987.65
2019-01-03T16:29:40.384Z,100002.23
2019-01-03T16:32:14.173Z,99997.91
2019-01-03T16:34:47.157Z,99998.73
2019-01-03T16:37:20.919Z,99998.69
2019-01-03T16:39:53.932Z,100002.55
2019-01-03T16:42:43.225Z,99992.22
2019-01-03T16:45:16.768Z,99994.39
2019-01-03T16:47:48.737Z,99989.58
2019-01-03T16:50:20.644Z,99990.87
2019-01-03T16:52:59.715Z,99996.44
2019-01-03T16:55:31.645Z,99987.83
2019-01-03T16:58:03.573Z,99995.16
2019-01-03T17:00:36.953Z,99992.98
2019-01-03T17:03:08.873Z,99991.27
2019-01-03T17:05:40.792Z,99992.56
2019-01-03T17:08:17.279Z,99992.11
2019-01-03T17:10:51.449Z,99984.80
2019-01-03T17:13:25.461Z,99989.07
2019-01-03T17:15:57.351Z,99985.19
2019-01-03T17:18:29.338Z,99983.86
2019-01-03T17:21:01.563Z,99987.36
2019-01-03T17:23:33.512Z,99990.77
2019-01-03T17:26:05.416Z,99993.77
2019-01-03T17:28:37.338Z,99994.18
2019-01-03T17:31:09.217Z,99989.84
2019-01-03T17:33:41.144Z,99989.41
2019-01-03T17:36:13.022Z,99989.42
2019-01-03T17:38:44.953Z,99993.72
2019-01-03T17:41:16.879Z,99993.70
2019-01-03T17:43:48.795Z,99998.88
2019-01-03T17:46:21.816Z,100004.05
2019-01-03T17:48:53.771Z,100008.30
2019-01-03T17:51:28.722Z,100009.58
2019-01-03T17:54:02.020Z,100007.44
2019-01-03T17:56:35.687Z,100011.30
2019-01-03T17:59:08.361Z,100010.06
2019-01-03T18:01:43.090Z,100010.06
2019-01-03T18:04:18.335Z,100004.45
2019-01-03T18:06:50.208Z,100000.64
2019-01-03T18:09:22.176Z,100008.42
2019-01-03T18:11:54.089Z,100007.55
2019-01-03T18:14:29.227Z,100004.97
2019-01-03T18:17:02.498Z,100010.92
2019-01-03T18:19:36.666Z,100014.34
2019-01-03T18:22:08.553Z,100015.20
2019-01-03T18:24:42.770Z,100022.47
2019-01-03T18:27:17.444Z,100022.89
2019-01-03T18:29:50.614Z,100019.03
2019-01-03T18:32:22.541Z,100029.33
2019-01-03T18:34:56.322Z,100021.62
2019-01-03T18:37:28.219Z,100024.22
2019-01-03T18:40:05.254Z,100028.05
2019-01-03T18:42:37.160Z,100026.74
2019-01-03T18:45:12.886Z,100031.05
2019-01-03T18:47:48.211Z,100029.33
2019-01-03T18:50:20.568Z,100037.52
2019-01-03T18:52:57.782Z,100039.16
2019-01-03T18:55:29.718Z,100035.71
2019-01-03T18:58:03.966Z,100033.98
2019-01-03T19:00:35.944Z,100035.28
2019-01-03T19:03:11.498Z,100040.00
2019-01-03T19:05:45.803Z,100043.43
2019-01-03T19:08:24.339Z,100046.04
2019-01-03T19:11:04.162Z,100039.59
2019-01-03T19:13:38.014Z,100046.87
2019-01-03T19:16:10.062Z,100047.72
2019-01-03T19:18:46.781Z,100042.12
2019-01-03T19:21:19.775Z,100042.52
2019-01-03T19:23:55.390Z,100040.00
2019-01-03T19:26:32.349Z,100051.18
2019-01-03T19:29:06.576Z,100043.85
2019-01-03T19:31:38.518Z,100039.94
2019-01-03T19:34:10.522Z,100040.84
2019-01-03T19:36:47.055Z,100034.38
2019-01-03T19:39:19.040Z,100036.95
2019-01-03T19:41:56.259Z,100039.53
2019-01-03T19:44:34.982Z,100034.42
2019-01-03T19:47:09.554Z,100031.40
2019-01-03T19:49:41.515Z,100033.96
2019-01-03T19:52:16.473Z,100027.97
2019-01-03T19:54:51.614Z,100025.40
2019-01-03T19:57:29.143Z,100021.98
2019-01-03T20:00:03.906Z,100018.52
2019-01-03T20:02:39.526Z,100017.63
2019-01-03T20:05:16.076Z,100007.34
2019-01-03T20:07:54.431Z,100006.48
2019-01-03T20:10:28.037Z,100009.50
2019-01-03T20:13:00.946Z,100006.92
2019-01-03T20:15:34.276Z,100009.08
2019-01-03T20:18:06.184Z,100000.91
2019-01-03T20:20:39.805Z,100005.20
2019-01-03T20:23:16.516Z,100009.44
2019-01-03T20:25:48.557Z,100017.97
2019-01-03T20:28:21.487Z,100017.97
2019-01-03T20:30:55.358Z,100028.29
2019-01-03T20:33:27.306Z,100022.24
2019-01-03T20:35:59.491Z,100023.07
2019-01-03T20:38:33.124Z,100023.08
2019-01-03T20:41:08.474Z,100026.91
2019-01-03T20:43:42.256Z,100018.76
2019-01-03T20:46:14.388Z,100022.64
2019-01-03T20:48:46.396Z,100016.20
2019-01-03T20:51:18.356Z,100015.32
2019-01-03T20:53:56.722Z,100009.34
2019-01-03T20:56:28.703Z,100016.24
2019-01-03T20:59:02.755Z,100012.39
2019-01-03T21:01:34.715Z,100010.20
2019-01-03T21:04:10.753Z,100009.34
2019-01-03T21:06:46.415Z,100008.50
2019-01-03T21:09:19.840Z,100000.83
2019-01-03T21:11:57.813Z,100005.08
2019-01-03T21:14:31.016Z,100010.20
2019-01-03T21:17:06.954Z,100013.63
2019-01-03T21:19:40.632Z,100011.91
2019-01-03T21:22:12.534Z,100001.64
2019-01-03T21:24:44.491Z,100009.84
2019-01-03T21:27:16.391Z,100013.70
2019-01-03T21:29:51.065Z,100011.55
2019-01-03T21:32:25.826Z,100017.59
2019-01-03T21:34:57.687Z,100012.91
2019-01-03T21:37:32.131Z,100012.48
2019-01-03T21:40:05.212Z,100012.94
2019-01-03T21:42:38.617Z,100006.89
2019-01-03T21:45:12.156Z,100011.16
2019-01-03T21:47:45.185Z,100014.58
2019-01-03T21:50:17.101Z,100015.41
2019-01-03T21:52:50.137Z,100027.02
2019-01-03T21:55:26.418Z,100020.55
2019-01-03T21:58:01.699Z,100022.75
2019-01-03T22:00:35.264Z,100025.33
2019-01-03T22:03:07.254Z,100025.72
2019-01-03T22:05:40.918Z,100017.61
2019-01-03T22:08:13.899Z,100015.90
2019-01-03T22:10:48.582Z,100018.08
2019-01-03T22:13:25.922Z,100020.21
2019-01-03T22:15:57.857Z,100025.80
2019-01-03T22:18:31.403Z,100022.34
2019-01-03T22:21:04.554Z,100022.80
2019-01-03T22:23:37.547Z,100028.39
2019-01-03T22:26:09.589Z,100029.67
2019-01-03T22:28:41.876Z,100029.67
2019-01-03T22:31:13.777Z,100034.39
2019-01-03T22:33:45.689Z,100031.36
2019-01-03T22:36:21.712Z,100030.04
2019-01-03T22:38:53.633Z,100033.87
2019-01-03T22:41:25.563Z,100035.59
2019-01-03T22:43:57.467Z,100025.68
2019-01-03T22:46:29.396Z,100029.99
2019-01-03T22:49:01.255Z,100033.87
2019-01-03T22:51:35.948Z,100040.34
2019-01-03T22:54:10.256Z,100033.46
2019-01-03T22:56:45.158Z,100042.09
2019-01-03T22:59:17.060Z,100044.68
2019-01-03T23:01:48.975Z,100043.80
2019-01-03T23:04:23.639Z,100045.52
2019-01-03T23:07:00.238Z,100040.81
2019-01-03T23:09:36.222Z,100042.09
2019-01-03T23:12:26.944Z,100049.80
2019-01-03T23:14:58.828Z,100051.91
2019-01-03T23:17:30.772Z,100047.60
2019-01-03T23:20:05.550Z,100049.34
2019-01-03T23:22:37.557Z,100055.34
2019-01-03T23:25:11.556Z,100047.20
2019-01-03T23:27:58.317Z,100044.69
2019-01-03T23:30:30.210Z,100049.06
2019-01-03T23:33:07.339Z,100057.20
2019-01-03T23:35:40.293Z,100057.20
2019-01-03T23:38:15.118Z,100053.75
2019-01-03T23:40:48.567Z,100055.86
2019-01-03T23:43:23.376Z,100049.85
2019-01-03T23:45:57.402Z,100054.58
2019-01-03T23:48:31.902Z,100050.70
2019-01-03T23:51:07.110Z,100060.55
2019-01-03T23:53:41.841Z,100058.42
2019-01-03T23:56:17.406Z,100068.28
2019-01-03T23:58:49.329Z,100069.16
